This is the latest recevied weather packets stored in our database for station/object DB0WV-6. If no packets are shown the sender has not sent any weather packets the latest 10 day(s).
| Time | Temp. | Humidity | Pressure | Rain* | Wind** | Luminosity | Snow |
|---|---|---|---|---|---|---|---|
| 1777211415 | 16.67° C | 31% | 1018.5 hPa | 0 mm | - | - | - |
| 1777208414 | 15.56° C | 33% | 1018.7 hPa | 0 mm | - | - | - |
| 1777206014 | 17.22° C | 31% | 1019.2 hPa | 0 mm | - | - | - |
| 1777204236 | 17.22° C | 32% | 1019.3 hPa | 0 mm | - | - | - |
| 1777200615 | 16.67° C | 31% | 1019.7 hPa | 0 mm | - | - | - |
| 1777198214 | 15.56° C | 37% | 1019.8 hPa | 0 mm | - | - | - |
| 1777189816 | 12.22° C | 45% | 1019.5 hPa | 0 mm | - | - | - |
| 1777188014 | 10.56° C | 47% | 1019.3 hPa | 0 mm | - | - | - |
| 1777185616 | 10° C | 46% | 1019.1 hPa | 0 mm | - | - | - |
| 1777181436 | 10° C | 40% | 1018.8 hPa | 0 mm | - | - | - |
| 1777179016 | 10° C | 36% | 1018.5 hPa | 0 mm | - | - | - |
| 1777175416 | 9.44° C | 39% | 1018.3 hPa | 0 mm | - | - | - |
| 1777169416 | 10.56° C | 41% | 1017.7 hPa | 0 mm | - | - | - |
| 1777167616 | 10.56° C | 42% | 1017.6 hPa | 0 mm | - | - | - |
| 1777161634 | 11.11° C | 41% | 1017.4 hPa | 0 mm | - | - | - |
| 1777158614 | 11.67° C | 41% | 1017.1 hPa | 0 mm | - | - | - |
| 1777157414 | 11.67° C | 41% | 1017.2 hPa | 0 mm | - | - | - |
| 1777152614 | 12.22° C | 43% | 1016.8 hPa | 0 mm | - | - | - |
| 1777150214 | 12.78° C | 44% | 1016.6 hPa | 0 mm | - | - | - |
| 1777143014 | 15° C | 45% | 1015.2 hPa | 0 mm | - | - | - |
| 1777141814 | 15.56° C | 43% | 1015.1 hPa | 0 mm | - | - | - |
| 1777137014 | 22.22° C | 25% | 1014.9 hPa | 0 mm | - | - | - |
| 1777132234 | 22.22° C | 25% | 1014.9 hPa | 0 mm | - | - | - |
| 1777121414 | 21.11° C | 23% | 1015.5 hPa | 0 mm | - | - | - |
| 1777119014 | 20.56° C | 20% | 1015.7 hPa | 0 mm | - | - | - |
* Rain latest hour (hover to see other rain measurements)
** Current wind speed in m/s (hover to see current wind gust speed)